KLM508 KLAX-KDEN
Flight info
| Callsign | KLM508 |
|---|---|
| Flight time | 1h 42m |
| Altitude | 37000 |
| Route | ORCKA5 LAS J146 DICEE DCT BUMMP SSKII4 |
| Aircraft | B738/M-ICAO/L |
Departure
| Time | 2026-04-25 10:00 |
|---|---|
| Airport | Los Angeles International Airport (KLAX) |
Arrival
| Time | 2026-04-25 11:43 |
|---|---|
| Airport | Denver International Airport (KDEN) |
| Time | Latitude | Longitude | Altitude | Speed | Heading |
|---|---|---|---|---|---|
| 2026-04-25 09:32 | 33.94700 | -118.40768 | 134 ft | 0 kts | 173° |
| 2026-04-25 09:46 | 33.94711 | -118.40770 | 134 ft | 2 kts | 171° |
| 2026-04-25 09:46 | 33.94729 | -118.40777 | 134 ft | 3 kts | 153° |
| 2026-04-25 09:46 | 33.94745 | -118.40791 | 134 ft | 3 kts | 134° |
| 2026-04-25 09:47 | 33.94757 | -118.40811 | 134 ft | 3 kts | 116° |
| 2026-04-25 09:47 | 33.94763 | -118.40834 | 134 ft | 3 kts | 99° |
| 2026-04-25 09:47 | 33.94764 | -118.40840 | 134 ft | 0 kts | 97° |
| 2026-04-25 09:51 | 33.94763 | -118.40836 | 134 ft | 4 kts | 96° |
| 2026-04-25 09:52 | 33.94766 | -118.40773 | 134 ft | 8 kts | 83° |
| 2026-04-25 09:52 | 33.94770 | -118.40726 | 134 ft | 6 kts | 83° |
| 2026-04-25 09:52 | 33.94777 | -118.40657 | 134 ft | 10 kts | 83° |
| 2026-04-25 09:52 | 33.94801 | -118.40595 | 134 ft | 9 kts | 25° |
| 2026-04-25 09:53 | 33.94867 | -118.40573 | 134 ft | 11 kts | 61° |
| 2026-04-25 09:53 | 33.94883 | -118.40476 | 134 ft | 12 kts | 83° |
| 2026-04-25 09:53 | 33.94892 | -118.40392 | 134 ft | 8 kts | 83° |
| 2026-04-25 09:53 | 33.94896 | -118.40347 | 134 ft | 4 kts | 83° |
| 2026-04-25 09:54 | 33.94902 | -118.40295 | 134 ft | 6 kts | 83° |
| 2026-04-25 09:54 | 33.94909 | -118.40231 | 134 ft | 7 kts | 83° |
| 2026-04-25 09:54 | 33.94911 | -118.40210 | 134 ft | 0 kts | 83° |
| 2026-04-25 09:57 | 33.94911 | -118.40209 | 134 ft | 2 kts | 82° |
| 2026-04-25 09:57 | 33.94955 | -118.40178 | 134 ft | 11 kts | 358° |
| 2026-04-25 09:57 | 33.95012 | -118.40190 | 134 ft | 5 kts | 324° |
| 2026-04-25 09:58 | 33.95021 | -118.40225 | 134 ft | 0 kts | 264° |
| 2026-04-25 09:59 | 33.95017 | -118.40265 | 134 ft | 16 kts | 263° |
| 2026-04-25 10:00 | 33.94973 | -118.40682 | 134 ft | 86 kts | 263° |
| 2026-04-25 10:00 | 33.94871 | -118.41667 | 134 ft | 149 kts | 263° |
| 2026-04-25 10:00 | 33.94731 | -118.43021 | 606 ft | 165 kts | 263° |
| 2026-04-25 10:00 | 33.94602 | -118.44362 | 1515 ft | 162 kts | 264° |
| 2026-04-25 10:01 | 33.94505 | -118.45744 | 2221 ft | 168 kts | 265° |
| 2026-04-25 10:01 | 33.94404 | -118.47150 | 2970 ft | 169 kts | 265° |
| 2026-04-25 10:01 | 33.94306 | -118.48562 | 3660 ft | 176 kts | 265° |
| 2026-04-25 10:01 | 33.94193 | -118.50128 | 4060 ft | 201 kts | 265° |
| 2026-04-25 10:02 | 33.94060 | -118.51911 | 4400 ft | 227 kts | 265° |
| 2026-04-25 10:02 | 33.93912 | -118.53891 | 4932 ft | 241 kts | 265° |
| 2026-04-25 10:02 | 33.93765 | -118.55915 | 5785 ft | 248 kts | 265° |
| 2026-04-25 10:02 | 33.93596 | -118.58040 | 6422 ft | 261 kts | 260° |
| 2026-04-25 10:03 | 33.92817 | -118.60017 | 7219 ft | 268 kts | 228° |
| 2026-04-25 10:03 | 33.91228 | -118.61179 | 8098 ft | 274 kts | 196° |
| 2026-04-25 10:03 | 33.89311 | -118.61142 | 8951 ft | 284 kts | 165° |
| 2026-04-25 10:03 | 33.87627 | -118.59875 | 9771 ft | 295 kts | 135° |
| 2026-04-25 10:04 | 33.86649 | -118.57679 | 10533 ft | 307 kts | 105° |
| 2026-04-25 10:04 | 33.86631 | -118.55078 | 11111 ft | 322 kts | 79° |
| 2026-04-25 10:04 | 33.87460 | -118.52507 | 11512 ft | 340 kts | 59° |
| 2026-04-25 10:04 | 33.88867 | -118.50129 | 11838 ft | 359 kts | 50° |
| 2026-04-25 10:05 | 33.90446 | -118.47735 | 12107 ft | 380 kts | 51° |
| 2026-04-25 10:05 | 33.92091 | -118.45132 | 12353 ft | 399 kts | 51° |
| 2026-04-25 10:05 | 33.93795 | -118.42398 | 12599 ft | 417 kts | 53° |
| 2026-04-25 10:05 | 33.95473 | -118.39495 | 13030 ft | 427 kts | 54° |
| 2026-04-25 10:06 | 33.97151 | -118.36507 | 13566 ft | 434 kts | 54° |
| 2026-04-25 10:06 | 33.98857 | -118.33481 | 14104 ft | 439 kts | 54° |
| 2026-04-25 10:06 | 34.00583 | -118.30426 | 14660 ft | 444 kts | 54° |
| 2026-04-25 10:06 | 34.02337 | -118.27341 | 15214 ft | 448 kts | 54° |
| 2026-04-25 10:07 | 34.04105 | -118.24229 | 15748 ft | 452 kts | 54° |
| 2026-04-25 10:07 | 34.05881 | -118.21093 | 16339 ft | 454 kts | 54° |
| 2026-04-25 10:07 | 34.07669 | -118.17929 | 16801 ft | 459 kts | 54° |
| 2026-04-25 10:07 | 34.09475 | -118.14731 | 17276 ft | 462 kts | 54° |
| 2026-04-25 10:08 | 34.11300 | -118.11500 | 17749 ft | 466 kts | 54° |
| 2026-04-25 10:08 | 34.13130 | -118.08253 | 18199 ft | 470 kts | 54° |
| 2026-04-25 10:08 | 34.14975 | -118.04979 | 18650 ft | 473 kts | 54° |
| 2026-04-25 10:08 | 34.16830 | -118.01682 | 19086 ft | 476 kts | 54° |
| 2026-04-25 10:09 | 34.18710 | -117.98372 | 19485 ft | 480 kts | 53° |
| 2026-04-25 10:09 | 34.20594 | -117.95035 | 19884 ft | 483 kts | 54° |
| 2026-04-25 10:09 | 34.22466 | -117.91704 | 20274 ft | 486 kts | 54° |
| 2026-04-25 10:09 | 34.24372 | -117.88307 | 20663 ft | 489 kts | 54° |
| 2026-04-25 10:10 | 34.26285 | -117.84888 | 21037 ft | 493 kts | 54° |
| 2026-04-25 10:10 | 34.28210 | -117.81441 | 21383 ft | 496 kts | 54° |
| 2026-04-25 10:10 | 34.30149 | -117.77967 | 21721 ft | 500 kts | 53° |
| 2026-04-25 10:10 | 34.32096 | -117.74478 | 22072 ft | 503 kts | 53° |
| 2026-04-25 10:11 | 34.34063 | -117.70953 | 22415 ft | 505 kts | 53° |
| 2026-04-25 10:11 | 34.36042 | -117.67432 | 22768 ft | 507 kts | 52° |
| 2026-04-25 10:11 | 34.38112 | -117.63945 | 23087 ft | 510 kts | 51° |
| 2026-04-25 10:11 | 34.40209 | -117.60466 | 23407 ft | 512 kts | 51° |
| 2026-04-25 10:12 | 34.42311 | -117.56964 | 23707 ft | 515 kts | 51° |
| 2026-04-25 10:12 | 34.44421 | -117.53435 | 24007 ft | 518 kts | 51° |
| 2026-04-25 10:12 | 34.48659 | -117.46317 | 24589 ft | 522 kts | 51° |
| 2026-04-25 10:13 | 34.50760 | -117.42776 | 24828 ft | 525 kts | 51° |
| 2026-04-25 10:13 | 34.52895 | -117.39177 | 25167 ft | 526 kts | 51° |
| 2026-04-25 10:13 | 34.55035 | -117.35562 | 25442 ft | 528 kts | 51° |
| 2026-04-25 10:13 | 34.57197 | -117.31941 | 25711 ft | 530 kts | 51° |
| 2026-04-25 10:14 | 34.59358 | -117.28309 | 25967 ft | 532 kts | 51° |
| 2026-04-25 10:14 | 34.61524 | -117.24660 | 26281 ft | 532 kts | 51° |
| 2026-04-25 10:14 | 34.63680 | -117.21018 | 26672 ft | 531 kts | 51° |
| 2026-04-25 10:14 | 34.65831 | -117.17377 | 27025 ft | 531 kts | 51° |
| 2026-04-25 10:15 | 34.67986 | -117.13726 | 27370 ft | 530 kts | 51° |
| 2026-04-25 10:15 | 34.70140 | -117.10072 | 27755 ft | 530 kts | 51° |
| 2026-04-25 10:15 | 34.72283 | -117.06430 | 28135 ft | 529 kts | 51° |
| 2026-04-25 10:15 | 34.74399 | -117.02848 | 28510 ft | 528 kts | 51° |
| 2026-04-25 10:16 | 34.76540 | -116.99221 | 28891 ft | 527 kts | 51° |
| 2026-04-25 10:16 | 34.78673 | -116.95586 | 29229 ft | 528 kts | 51° |
| 2026-04-25 10:16 | 34.80803 | -116.91950 | 29572 ft | 528 kts | 51° |
| 2026-04-25 10:16 | 34.82931 | -116.88308 | 29971 ft | 526 kts | 50° |
| 2026-04-25 10:17 | 34.85048 | -116.84680 | 30364 ft | 525 kts | 50° |
| 2026-04-25 10:17 | 34.87160 | -116.81055 | 30751 ft | 524 kts | 50° |
| 2026-04-25 10:17 | 34.89274 | -116.77424 | 31071 ft | 525 kts | 50° |
| 2026-04-25 10:17 | 34.91404 | -116.73803 | 31357 ft | 525 kts | 49° |
| 2026-04-25 10:18 | 34.93690 | -116.70349 | 31658 ft | 522 kts | 44° |
| 2026-04-25 10:18 | 34.96125 | -116.67034 | 31784 ft | 525 kts | 42° |
| 2026-04-25 10:18 | 34.98627 | -116.63789 | 32085 ft | 525 kts | 41° |
| 2026-04-25 10:18 | 35.01135 | -116.60557 | 32404 ft | 525 kts | 41° |
| 2026-04-25 10:19 | 35.03607 | -116.57347 | 32687 ft | 526 kts | 41° |
| 2026-04-25 10:19 | 35.06106 | -116.54078 | 32969 ft | 526 kts | 41° |
| 2026-04-25 10:19 | 35.08604 | -116.50796 | 33250 ft | 527 kts | 41° |
| 2026-04-25 10:19 | 35.11102 | -116.47501 | 33526 ft | 528 kts | 41° |
| 2026-04-25 10:20 | 35.13593 | -116.44207 | 33798 ft | 528 kts | 41° |
| 2026-04-25 10:20 | 35.16090 | -116.40906 | 34081 ft | 528 kts | 41° |
| 2026-04-25 10:20 | 35.18599 | -116.37605 | 34331 ft | 529 kts | 41° |
| 2026-04-25 10:20 | 35.21104 | -116.34296 | 34595 ft | 530 kts | 41° |
| 2026-04-25 10:21 | 35.23575 | -116.31024 | 34851 ft | 530 kts | 41° |
| 2026-04-25 10:21 | 35.26080 | -116.27699 | 35105 ft | 531 kts | 41° |
| 2026-04-25 10:21 | 35.28576 | -116.24378 | 35420 ft | 529 kts | 40° |
| 2026-04-25 10:21 | 35.31067 | -116.21061 | 35749 ft | 527 kts | 40° |
| 2026-04-25 10:22 | 35.33535 | -116.17771 | 36171 ft | 524 kts | 40° |
| 2026-04-25 10:22 | 35.36010 | -116.14469 | 36323 ft | 526 kts | 40° |
| 2026-04-25 10:22 | 35.38487 | -116.11159 | 36547 ft | 527 kts | 40° |
| 2026-04-25 10:22 | 35.40959 | -116.07853 | 36790 ft | 527 kts | 40° |
| 2026-04-25 10:23 | 35.43454 | -116.04534 | 36802 ft | 529 kts | 40° |
| 2026-04-25 10:23 | 35.48425 | -115.97877 | 36810 ft | 528 kts | 40° |
| 2026-04-25 10:24 | 35.53363 | -115.91231 | 36809 ft | 526 kts | 40° |
| 2026-04-25 10:24 | 35.58286 | -115.84588 | 36805 ft | 526 kts | 40° |
| 2026-04-25 10:25 | 35.63210 | -115.77934 | 36798 ft | 526 kts | 40° |
| 2026-04-25 10:25 | 35.68067 | -115.71268 | 36793 ft | 527 kts | 41° |
| 2026-04-25 10:26 | 35.72945 | -115.64545 | 36786 ft | 526 kts | 41° |
| 2026-04-25 10:26 | 35.77818 | -115.57818 | 36784 ft | 525 kts | 41° |
| 2026-04-25 10:27 | 35.82648 | -115.51130 | 36788 ft | 520 kts | 42° |
| 2026-04-25 10:27 | 35.87470 | -115.44468 | 36788 ft | 520 kts | 41° |
| 2026-04-25 10:28 | 35.92306 | -115.37823 | 36785 ft | 517 kts | 42° |
| 2026-04-25 10:28 | 35.97049 | -115.31232 | 36770 ft | 515 kts | 42° |
| 2026-04-25 10:29 | 36.01797 | -115.24608 | 36777 ft | 522 kts | 42° |
| 2026-04-25 10:29 | 36.06472 | -115.17701 | 36769 ft | 528 kts | 49° |
| 2026-04-25 10:30 | 36.10177 | -115.09784 | 36766 ft | 536 kts | 62° |
| 2026-04-25 10:30 | 36.12826 | -115.01127 | 36759 ft | 539 kts | 67° |
| 2026-04-25 10:31 | 36.15364 | -114.92402 | 36745 ft | 538 kts | 67° |
| 2026-04-25 10:31 | 36.17953 | -114.83714 | 36734 ft | 538 kts | 66° |
| 2026-04-25 10:32 | 36.20572 | -114.75024 | 36746 ft | 538 kts | 66° |
| 2026-04-25 10:32 | 36.23237 | -114.66351 | 36736 ft | 540 kts | 66° |
| 2026-04-25 10:33 | 36.25897 | -114.57640 | 36734 ft | 540 kts | 66° |
| 2026-04-25 10:33 | 36.28540 | -114.48947 | 36741 ft | 536 kts | 66° |
| 2026-04-25 10:34 | 36.31145 | -114.40349 | 36739 ft | 536 kts | 66° |
| 2026-04-25 10:34 | 36.33763 | -114.31680 | 36746 ft | 537 kts | 66° |
| 2026-04-25 10:35 | 36.36376 | -114.23001 | 36749 ft | 537 kts | 66° |
| 2026-04-25 10:35 | 36.38987 | -114.14301 | 36753 ft | 539 kts | 66° |
| 2026-04-25 10:36 | 36.41599 | -114.05571 | 36771 ft | 539 kts | 66° |
| 2026-04-25 10:36 | 36.44206 | -113.96829 | 36789 ft | 539 kts | 67° |
| 2026-04-25 10:37 | 36.46806 | -113.88083 | 36805 ft | 540 kts | 67° |
| 2026-04-25 10:37 | 36.49401 | -113.79328 | 36823 ft | 540 kts | 67° |
| 2026-04-25 10:38 | 36.51994 | -113.70569 | 36834 ft | 541 kts | 66° |
| 2026-04-25 10:38 | 36.54605 | -113.61771 | 36848 ft | 542 kts | 67° |
| 2026-04-25 10:39 | 36.57183 | -113.52972 | 36858 ft | 541 kts | 67° |
| 2026-04-25 10:39 | 36.59749 | -113.44164 | 36858 ft | 541 kts | 67° |
| 2026-04-25 10:40 | 36.62296 | -113.35412 | 36873 ft | 542 kts | 67° |
| 2026-04-25 10:40 | 36.64859 | -113.26567 | 36883 ft | 542 kts | 67° |
| 2026-04-25 10:41 | 36.66980 | -113.19216 | 36893 ft | 542 kts | 68° |
| 2026-04-25 10:41 | 36.69523 | -113.10364 | 36908 ft | 542 kts | 68° |
| 2026-04-25 10:42 | 36.72058 | -113.01512 | 36917 ft | 542 kts | 68° |
| 2026-04-25 10:42 | 36.74591 | -112.92657 | 36922 ft | 542 kts | 67° |
| 2026-04-25 10:43 | 36.77145 | -112.83824 | 36929 ft | 541 kts | 68° |
| 2026-04-25 10:43 | 36.78396 | -112.79463 | 36927 ft | 528 kts | 68° |
| 2026-04-25 10:43 | 36.79620 | -112.75175 | 36911 ft | 523 kts | 68° |
| 2026-04-25 10:44 | 36.82082 | -112.66600 | 36918 ft | 531 kts | 68° |
| 2026-04-25 10:44 | 36.84566 | -112.57844 | 36914 ft | 537 kts | 68° |
| 2026-04-25 10:45 | 36.87037 | -112.49054 | 36916 ft | 535 kts | 68° |
| 2026-04-25 10:45 | 36.89499 | -112.40269 | 36922 ft | 535 kts | 68° |
| 2026-04-25 10:46 | 36.91931 | -112.31479 | 36922 ft | 535 kts | 68° |
| 2026-04-25 10:46 | 36.94402 | -112.22685 | 36919 ft | 535 kts | 68° |
| 2026-04-25 10:47 | 36.96830 | -112.13966 | 36911 ft | 534 kts | 69° |
| 2026-04-25 10:47 | 36.99260 | -112.05195 | 36910 ft | 534 kts | 69° |
| 2026-04-25 10:48 | 37.01690 | -111.96388 | 36894 ft | 534 kts | 69° |
| 2026-04-25 10:48 | 37.04132 | -111.87625 | 36882 ft | 533 kts | 69° |
| 2026-04-25 10:49 | 37.06566 | -111.78846 | 36874 ft | 534 kts | 69° |
| 2026-04-25 10:49 | 37.08992 | -111.70033 | 36858 ft | 535 kts | 69° |
| 2026-04-25 10:50 | 37.11420 | -111.61166 | 36870 ft | 540 kts | 69° |
| 2026-04-25 10:50 | 37.13871 | -111.52273 | 36867 ft | 539 kts | 69° |
| 2026-04-25 10:51 | 37.16269 | -111.43438 | 36857 ft | 538 kts | 69° |
| 2026-04-25 10:51 | 37.18672 | -111.34527 | 36859 ft | 539 kts | 69° |
| 2026-04-25 10:52 | 37.21070 | -111.25613 | 36855 ft | 539 kts | 69° |
| 2026-04-25 10:52 | 37.23913 | -111.16949 | 36857 ft | 536 kts | 61° |
| 2026-04-25 10:53 | 37.27281 | -111.08614 | 36859 ft | 535 kts | 59° |
| 2026-04-25 10:53 | 37.30611 | -111.00375 | 36855 ft | 530 kts | 60° |
| 2026-04-25 10:54 | 37.33910 | -110.92098 | 36853 ft | 528 kts | 60° |
| 2026-04-25 10:54 | 37.37191 | -110.83802 | 36849 ft | 529 kts | 60° |
| 2026-04-25 10:55 | 37.40477 | -110.75559 | 36847 ft | 529 kts | 60° |
| 2026-04-25 10:55 | 37.43764 | -110.67253 | 36847 ft | 530 kts | 61° |
| 2026-04-25 10:56 | 37.47040 | -110.58926 | 36848 ft | 531 kts | 61° |
| 2026-04-25 10:56 | 37.50305 | -110.50593 | 36849 ft | 531 kts | 61° |
| 2026-04-25 10:57 | 37.53549 | -110.42285 | 36850 ft | 531 kts | 61° |
| 2026-04-25 10:57 | 37.56808 | -110.33913 | 36862 ft | 531 kts | 61° |
| 2026-04-25 10:58 | 37.60051 | -110.25557 | 36876 ft | 530 kts | 61° |
| 2026-04-25 10:58 | 37.63245 | -110.17308 | 36861 ft | 520 kts | 61° |
| 2026-04-25 10:59 | 37.66437 | -110.09040 | 36878 ft | 527 kts | 61° |
| 2026-04-25 10:59 | 37.69663 | -110.00659 | 36887 ft | 532 kts | 61° |
| 2026-04-25 11:00 | 37.72861 | -109.92330 | 36893 ft | 530 kts | 61° |
| 2026-04-25 11:00 | 37.76071 | -109.83948 | 36901 ft | 530 kts | 62° |
| 2026-04-25 11:01 | 37.79264 | -109.75587 | 36901 ft | 526 kts | 62° |
| 2026-04-25 11:01 | 37.82435 | -109.67261 | 36895 ft | 524 kts | 62° |
| 2026-04-25 11:02 | 37.85588 | -109.58960 | 36901 ft | 528 kts | 62° |
| 2026-04-25 11:02 | 37.88764 | -109.50573 | 36898 ft | 528 kts | 62° |
| 2026-04-25 11:03 | 37.91931 | -109.42191 | 36902 ft | 527 kts | 62° |
| 2026-04-25 11:03 | 37.95091 | -109.33801 | 36907 ft | 528 kts | 62° |
| 2026-04-25 11:04 | 37.98267 | -109.25406 | 36896 ft | 527 kts | 62° |
| 2026-04-25 11:04 | 38.01423 | -109.16994 | 36896 ft | 528 kts | 62° |
| 2026-04-25 11:05 | 38.04553 | -109.08591 | 36904 ft | 530 kts | 62° |
| 2026-04-25 11:05 | 38.07690 | -109.00141 | 36909 ft | 529 kts | 62° |
| 2026-04-25 11:06 | 38.10837 | -108.91692 | 36934 ft | 529 kts | 61° |
| 2026-04-25 11:06 | 38.14131 | -108.83345 | 36952 ft | 528 kts | 60° |
| 2026-04-25 11:07 | 38.17413 | -108.74997 | 36936 ft | 528 kts | 60° |
| 2026-04-25 11:07 | 38.20686 | -108.66626 | 36956 ft | 530 kts | 60° |
| 2026-04-25 11:08 | 38.23963 | -108.58212 | 36957 ft | 530 kts | 60° |
| 2026-04-25 11:08 | 38.27219 | -108.49902 | 36962 ft | 526 kts | 61° |
| 2026-04-25 11:09 | 38.30465 | -108.41588 | 36975 ft | 521 kts | 61° |
| 2026-04-25 11:09 | 38.33698 | -108.33318 | 36957 ft | 521 kts | 61° |
| 2026-04-25 11:10 | 38.36887 | -108.25085 | 36943 ft | 521 kts | 61° |
| 2026-04-25 11:10 | 38.40077 | -108.16784 | 36940 ft | 521 kts | 61° |
| 2026-04-25 11:11 | 38.43259 | -108.08476 | 36928 ft | 520 kts | 61° |
| 2026-04-25 11:11 | 38.46439 | -108.00155 | 36928 ft | 521 kts | 62° |
| 2026-04-25 11:12 | 38.49597 | -107.91796 | 36929 ft | 521 kts | 62° |
| 2026-04-25 11:12 | 38.52734 | -107.83521 | 36912 ft | 521 kts | 61° |
| 2026-04-25 11:13 | 38.55877 | -107.75213 | 36917 ft | 518 kts | 62° |
| 2026-04-25 11:13 | 38.58988 | -107.66911 | 36917 ft | 519 kts | 62° |
| 2026-04-25 11:14 | 38.62111 | -107.58537 | 36929 ft | 522 kts | 62° |
| 2026-04-25 11:14 | 38.65238 | -107.50143 | 36945 ft | 521 kts | 62° |
| 2026-04-25 11:15 | 38.68395 | -107.41783 | 36953 ft | 521 kts | 62° |
| 2026-04-25 11:15 | 38.71552 | -107.33418 | 36954 ft | 521 kts | 62° |
| 2026-04-25 11:16 | 38.76255 | -107.20897 | 36966 ft | 521 kts | 62° |
| 2026-04-25 11:16 | 38.79391 | -107.12520 | 36969 ft | 520 kts | 62° |
| 2026-04-25 11:17 | 38.82538 | -107.04170 | 36967 ft | 520 kts | 62° |
| 2026-04-25 11:17 | 38.84109 | -106.99997 | 36681 ft | 520 kts | 62° |
| 2026-04-25 11:17 | 38.85676 | -106.95819 | 36049 ft | 518 kts | 62° |
| 2026-04-25 11:18 | 38.87246 | -106.91667 | 35318 ft | 518 kts | 62° |
| 2026-04-25 11:18 | 38.88808 | -106.87500 | 34578 ft | 517 kts | 63° |
| 2026-04-25 11:18 | 38.90360 | -106.83331 | 33819 ft | 517 kts | 63° |
| 2026-04-25 11:18 | 38.91906 | -106.79161 | 33062 ft | 516 kts | 63° |
| 2026-04-25 11:19 | 38.93408 | -106.75096 | 32756 ft | 505 kts | 63° |
| 2026-04-25 11:19 | 38.94892 | -106.71072 | 32547 ft | 492 kts | 63° |
| 2026-04-25 11:19 | 38.96339 | -106.67145 | 32292 ft | 482 kts | 63° |
| 2026-04-25 11:19 | 38.97761 | -106.63282 | 32042 ft | 478 kts | 63° |
| 2026-04-25 11:20 | 38.99190 | -106.59404 | 31789 ft | 483 kts | 63° |
| 2026-04-25 11:20 | 39.00632 | -106.55472 | 31369 ft | 488 kts | 64° |
| 2026-04-25 11:20 | 39.02078 | -106.51548 | 30841 ft | 482 kts | 63° |
| 2026-04-25 11:20 | 39.03509 | -106.47677 | 30331 ft | 478 kts | 64° |
| 2026-04-25 11:21 | 39.04921 | -106.43828 | 29828 ft | 473 kts | 64° |
| 2026-04-25 11:21 | 39.06316 | -106.40005 | 29338 ft | 468 kts | 64° |
| 2026-04-25 11:21 | 39.07688 | -106.36234 | 28855 ft | 464 kts | 64° |
| 2026-04-25 11:21 | 39.09048 | -106.32483 | 28371 ft | 460 kts | 64° |
| 2026-04-25 11:22 | 39.10395 | -106.28765 | 27891 ft | 456 kts | 64° |
| 2026-04-25 11:22 | 39.11278 | -106.26322 | 27575 ft | 454 kts | 64° |
| 2026-04-25 11:22 | 39.13054 | -106.21411 | 26936 ft | 449 kts | 64° |
| 2026-04-25 11:22 | 39.14368 | -106.17779 | 26459 ft | 446 kts | 64° |
| 2026-04-25 11:23 | 39.15660 | -106.14210 | 26014 ft | 442 kts | 64° |
| 2026-04-25 11:23 | 39.16951 | -106.10641 | 25587 ft | 438 kts | 64° |
| 2026-04-25 11:23 | 39.18231 | -106.07086 | 25142 ft | 435 kts | 65° |
| 2026-04-25 11:23 | 39.19495 | -106.03560 | 24703 ft | 432 kts | 65° |
| 2026-04-25 11:24 | 39.20750 | -106.00052 | 24243 ft | 430 kts | 65° |
| 2026-04-25 11:24 | 39.21995 | -105.96569 | 23844 ft | 426 kts | 65° |
| 2026-04-25 11:24 | 39.23233 | -105.93106 | 23413 ft | 423 kts | 65° |
| 2026-04-25 11:24 | 39.24468 | -105.89671 | 22919 ft | 423 kts | 64° |
| 2026-04-25 11:25 | 39.25717 | -105.86229 | 22427 ft | 422 kts | 65° |
| 2026-04-25 11:25 | 39.26949 | -105.82814 | 22053 ft | 418 kts | 65° |
| 2026-04-25 11:25 | 39.28163 | -105.79436 | 21550 ft | 412 kts | 65° |
| 2026-04-25 11:25 | 39.29365 | -105.76084 | 20924 ft | 411 kts | 65° |
| 2026-04-25 11:26 | 39.30563 | -105.72736 | 20429 ft | 411 kts | 65° |
| 2026-04-25 11:26 | 39.31757 | -105.69404 | 20125 ft | 405 kts | 66° |
| 2026-04-25 11:26 | 39.32931 | -105.66136 | 19986 ft | 395 kts | 65° |
| 2026-04-25 11:26 | 39.34101 | -105.62964 | 19816 ft | 387 kts | 65° |
| 2026-04-25 11:27 | 39.35233 | -105.59876 | 19480 ft | 385 kts | 65° |
| 2026-04-25 11:27 | 39.36373 | -105.56750 | 19121 ft | 383 kts | 65° |
| 2026-04-25 11:27 | 39.37501 | -105.53649 | 18818 ft | 377 kts | 65° |
| 2026-04-25 11:27 | 39.37875 | -105.52619 | 18775 ft | 372 kts | 66° |
| 2026-04-25 11:28 | 39.39669 | -105.47672 | 18067 ft | 362 kts | 65° |
| 2026-04-25 11:28 | 39.40717 | -105.44714 | 17541 ft | 361 kts | 68° |
| 2026-04-25 11:28 | 39.41491 | -105.41644 | 17013 ft | 356 kts | 78° |
| 2026-04-25 11:28 | 39.41859 | -105.38557 | 16622 ft | 348 kts | 87° |
| 2026-04-25 11:29 | 39.41934 | -105.35468 | 16246 ft | 340 kts | 92° |
| 2026-04-25 11:29 | 39.41909 | -105.32441 | 15956 ft | 331 kts | 92° |
| 2026-04-25 11:29 | 39.41883 | -105.29494 | 15678 ft | 323 kts | 92° |
| 2026-04-25 11:29 | 39.41868 | -105.26620 | 15399 ft | 316 kts | 92° |
| 2026-04-25 11:30 | 39.41861 | -105.24750 | 15214 ft | 312 kts | 92° |
| 2026-04-25 11:30 | 39.41856 | -105.21975 | 14925 ft | 306 kts | 92° |
| 2026-04-25 11:30 | 39.41854 | -105.19240 | 14599 ft | 302 kts | 92° |
| 2026-04-25 11:30 | 39.41855 | -105.16536 | 14270 ft | 299 kts | 91° |
| 2026-04-25 11:31 | 39.41858 | -105.13866 | 13945 ft | 295 kts | 91° |
| 2026-04-25 11:31 | 39.41862 | -105.11224 | 13619 ft | 292 kts | 91° |
| 2026-04-25 11:31 | 39.41865 | -105.08600 | 13297 ft | 290 kts | 90° |
| 2026-04-25 11:31 | 39.41869 | -105.06004 | 13049 ft | 288 kts | 90° |
| 2026-04-25 11:32 | 39.41876 | -105.03427 | 12798 ft | 287 kts | 90° |
| 2026-04-25 11:32 | 39.41881 | -105.00841 | 12549 ft | 286 kts | 90° |
| 2026-04-25 11:32 | 39.41888 | -104.98273 | 12311 ft | 284 kts | 90° |
| 2026-04-25 11:32 | 39.41894 | -104.95770 | 12083 ft | 281 kts | 90° |
| 2026-04-25 11:33 | 39.41938 | -104.93259 | 11831 ft | 278 kts | 87° |
| 2026-04-25 11:33 | 39.42133 | -104.90784 | 11582 ft | 275 kts | 83° |
| 2026-04-25 11:33 | 39.42380 | -104.88339 | 11329 ft | 273 kts | 83° |
| 2026-04-25 11:33 | 39.42633 | -104.85920 | 11114 ft | 269 kts | 83° |
| 2026-04-25 11:34 | 39.42887 | -104.83546 | 10911 ft | 264 kts | 83° |
| 2026-04-25 11:34 | 39.43139 | -104.81211 | 10711 ft | 260 kts | 83° |
| 2026-04-25 11:34 | 39.43391 | -104.78917 | 10508 ft | 255 kts | 83° |
| 2026-04-25 11:34 | 39.43642 | -104.76660 | 10305 ft | 252 kts | 83° |
| 2026-04-25 11:35 | 39.43891 | -104.74438 | 10103 ft | 248 kts | 83° |
| 2026-04-25 11:35 | 39.44134 | -104.72249 | 9911 ft | 243 kts | 83° |
| 2026-04-25 11:35 | 39.44660 | -104.70248 | 9694 ft | 238 kts | 53° |
| 2026-04-25 11:35 | 39.45910 | -104.68944 | 9532 ft | 229 kts | 26° |
| 2026-04-25 11:36 | 39.47337 | -104.68079 | 9365 ft | 225 kts | 23° |
| 2026-04-25 11:36 | 39.48748 | -104.67229 | 9188 ft | 223 kts | 22° |
| 2026-04-25 11:36 | 39.50160 | -104.66437 | 9010 ft | 219 kts | 13° |
| 2026-04-25 11:36 | 39.51634 | -104.66239 | 8986 ft | 211 kts | 356° |
| 2026-04-25 11:37 | 39.53096 | -104.66290 | 8996 ft | 211 kts | 355° |
| 2026-04-25 11:37 | 39.54573 | -104.66325 | 9000 ft | 213 kts | 356° |
| 2026-04-25 11:37 | 39.56068 | -104.66338 | 9001 ft | 216 kts | 357° |
| 2026-04-25 11:37 | 39.57575 | -104.66338 | 8996 ft | 217 kts | 358° |
| 2026-04-25 11:38 | 39.59086 | -104.66329 | 8995 ft | 217 kts | 357° |
| 2026-04-25 11:38 | 39.60570 | -104.66317 | 8992 ft | 215 kts | 358° |
| 2026-04-25 11:38 | 39.62070 | -104.66302 | 8993 ft | 216 kts | 358° |
| 2026-04-25 11:38 | 39.63572 | -104.66285 | 8990 ft | 216 kts | 358° |
| 2026-04-25 11:39 | 39.65088 | -104.66268 | 8845 ft | 220 kts | 358° |
| 2026-04-25 11:39 | 39.66605 | -104.66249 | 8565 ft | 216 kts | 358° |
| 2026-04-25 11:39 | 39.68095 | -104.66232 | 8291 ft | 211 kts | 358° |
| 2026-04-25 11:39 | 39.69545 | -104.66215 | 8013 ft | 206 kts | 358° |
| 2026-04-25 11:40 | 39.70958 | -104.66198 | 7743 ft | 198 kts | 358° |
| 2026-04-25 11:40 | 39.72292 | -104.66182 | 7480 ft | 186 kts | 358° |
| 2026-04-25 11:40 | 39.73531 | -104.66168 | 7248 ft | 173 kts | 358° |
| 2026-04-25 11:40 | 39.74705 | -104.66153 | 7008 ft | 164 kts | 358° |
| 2026-04-25 11:41 | 39.75826 | -104.66140 | 6793 ft | 159 kts | 358° |
| 2026-04-25 11:41 | 39.76915 | -104.66126 | 6598 ft | 159 kts | 358° |
| 2026-04-25 11:41 | 39.78036 | -104.66113 | 6386 ft | 160 kts | 359° |
| 2026-04-25 11:41 | 39.79138 | -104.66100 | 6173 ft | 159 kts | 360° |
| 2026-04-25 11:42 | 39.80237 | -104.66087 | 5960 ft | 157 kts | 360° |
| 2026-04-25 11:42 | 39.81326 | -104.66073 | 5759 ft | 156 kts | 0° |
| 2026-04-25 11:42 | 39.82412 | -104.66060 | 5549 ft | 156 kts | 0° |
| 2026-04-25 11:42 | 39.83482 | -104.66047 | 5440 ft | 149 kts | 0° |
| 2026-04-25 11:43 | 39.84359 | -104.66037 | 5439 ft | 98 kts | 0° |
| 2026-04-25 11:43 | 39.84860 | -104.66032 | 5439 ft | 47 kts | 0° |
| 2026-04-25 11:43 | 39.85022 | -104.66030 | 5439 ft | 15 kts | 0° |
| 2026-04-25 11:43 | 39.85118 | -104.66034 | 5439 ft | 11 kts | 345° |
| 2026-04-25 11:44 | 39.85168 | -104.66068 | 5439 ft | 5 kts | 330° |
| 2026-04-25 11:44 | 39.85184 | -104.66080 | 5439 ft | 0 kts | 330° |
| 2026-04-25 11:44 | 39.85206 | -104.66097 | 5439 ft | 8 kts | 330° |
| 2026-04-25 11:44 | 39.85256 | -104.66135 | 5439 ft | 7 kts | 330° |
| 2026-04-25 11:45 | 39.85305 | -104.66172 | 5439 ft | 9 kts | 330° |
| 2026-04-25 11:45 | 39.85364 | -104.66216 | 5439 ft | 10 kts | 332° |
| 2026-04-25 11:45 | 39.85432 | -104.66242 | 5439 ft | 10 kts | 358° |
| 2026-04-25 11:45 | 39.85497 | -104.66241 | 5439 ft | 8 kts | 359° |
| 2026-04-25 11:46 | 39.85501 | -104.66241 | 5439 ft | 0 kts | 359° |
| 2026-04-25 11:46 | 39.85514 | -104.66241 | 5439 ft | 5 kts | 0° |
| 2026-04-25 11:46 | 39.85562 | -104.66240 | 5439 ft | 10 kts | 0° |
| 2026-04-25 11:47 | 39.85642 | -104.66240 | 5439 ft | 13 kts | 0° |
| 2026-04-25 11:47 | 39.85741 | -104.66239 | 5439 ft | 15 kts | 0° |
| 2026-04-25 11:47 | 39.85852 | -104.66235 | 5439 ft | 16 kts | 0° |
| 2026-04-25 11:47 | 39.85942 | -104.66234 | 5439 ft | 9 kts | 0° |
| 2026-04-25 11:48 | 39.85998 | -104.66253 | 5439 ft | 10 kts | 301° |
| 2026-04-25 11:48 | 39.86012 | -104.66358 | 5439 ft | 13 kts | 270° |
| 2026-04-25 11:48 | 39.86012 | -104.66492 | 5439 ft | 16 kts | 270° |
| 2026-04-25 11:48 | 39.86011 | -104.66644 | 5439 ft | 17 kts | 269° |
| 2026-04-25 11:49 | 39.86010 | -104.66801 | 5439 ft | 18 kts | 269° |
| 2026-04-25 11:49 | 39.86009 | -104.66952 | 5439 ft | 15 kts | 269° |
| 2026-04-25 11:49 | 39.86008 | -104.67042 | 5439 ft | 6 kts | 269° |
| 2026-04-25 11:49 | 39.86008 | -104.67046 | 5439 ft | 1 kts | 269° |
| 2026-04-25 11:50 | 39.85989 | -104.67091 | 5439 ft | 8 kts | 195° |
| 2026-04-25 11:50 | 39.85943 | -104.67093 | 5439 ft | 1 kts | 179° |
| 2026-04-25 11:50 | 39.85925 | -104.67093 | 5439 ft | 4 kts | 179° |
| 2026-04-25 11:50 | 39.85919 | -104.67093 | 5439 ft | 0 kts | 179° |